Time;durP1;ratioP1;P1;durP2;ratioP2;P2;SDS_P1;SDS_P2;PMS_P1;PMS_P2;Temp;Humidity;BMP_temperature;BMP_pressure;BME280_temperature;BME280_humidity;BME280_pressure;Samples;Min_cycle;Max_cycle;Signal;HPM_P1;HPM_P2
2022/12/24 00:01:53;;;;;;;7.68;3.47;;;;;;;8.83;98.90;99714.38;5049876;28;20064;-67
2022/12/24 00:04:18;;;;;;;7.25;3.60;;;;;;;8.72;99.75;99705.44;5043968;28;20037;-66
2022/12/24 00:06:44;;;;;;;12.77;3.83;;;;;;;8.77;99.60;99713.16;5056461;28;20431;-67
2022/12/24 00:09:09;;;;;;;7.65;3.33;;;;;;;8.73;99.00;99712.38;5044995;28;20033;-65
2022/12/24 00:11:34;;;;;;;7.00;3.10;;;;;;;8.83;99.61;99717.84;5059588;28;20051;-67
2022/12/24 00:14:00;;;;;;;10.68;4.60;;;;;;;8.83;99.03;99704.44;5055493;28;20515;-67
2022/12/24 00:16:25;;;;;;;9.15;4.10;;;;;;;8.69;99.43;99711.56;5056796;28;20049;-67
2022/12/24 00:18:53;;;;;;;7.68;3.63;;;;;;;8.62;99.92;99714.91;5061250;28;20110;-68
2022/12/24 00:21:19;;;;;;;12.07;3.60;;;;;;;8.67;99.73;99713.84;5040012;28;20037;-67
2022/12/24 00:23:44;;;;;;;6.57;3.65;;;;;;;8.62;100.00;99709.56;5060810;28;20078;-68
2022/12/24 00:26:11;;;;;;;12.48;3.95;;;;;;;8.71;99.56;99717.34;5057551;28;20119;-67
2022/12/24 00:28:36;;;;;;;10.57;3.67;;;;;;;8.75;99.42;99718.91;5055936;28;20033;-67
2022/12/24 00:31:11;;;;;;;15.18;5.13;;;;;;;8.62;99.69;99714.13;5040053;28;20056;-67
2022/12/24 00:33:36;;;;;;;9.40;3.60;;;;;;;8.64;100.00;99711.88;5045662;28;20528;-67
2022/12/24 00:36:02;;;;;;;8.55;4.03;;;;;;;8.65;99.86;99716.09;5044170;28;20041;-68
2022/12/24 00:38:28;;;;;;;6.70;3.38;;;;;;;8.67;99.88;99717.28;5043729;28;20041;-67
2022/12/24 00:41:00;;;;;;;11.00;4.07;;;;;;;8.68;99.75;99724.19;5045683;28;20059;-68
2022/12/24 00:43:27;;;;;;;8.38;3.85;;;;;;;8.71;99.51;99718.09;5046011;28;20036;-68
2022/12/24 00:45:53;;;;;;;10.15;4.20;;;;;;;8.75;99.23;99732.31;5036582;28;20482;-68
2022/12/24 00:48:21;;;;;;;7.13;3.05;;;;;;;8.87;98.26;99724.03;5031214;28;20394;-67
2022/12/24 00:50:48;;;;;;;10.63;3.78;;;;;;;8.77;99.08;99731.94;5039347;28;20033;-67
2022/12/24 00:53:14;;;;;;;9.48;4.15;;;;;;;8.81;98.96;99733.56;5045645;28;20029;-68
2022/12/24 00:55:40;;;;;;;9.85;3.80;;;;;;;8.81;99.21;99733.56;5040287;28;20493;-67
2022/12/24 00:58:05;;;;;;;8.50;3.78;;;;;;;8.79;99.27;99729.69;5034624;28;20092;-67
2022/12/24 01:00:30;;;;;;;6.65;3.72;;;;;;;8.73;99.05;99734.59;5021607;28;20049;-68
2022/12/24 01:02:56;;;;;;;10.23;4.15;;;;;;;8.73;98.87;99744.59;5030191;28;20036;-68
2022/12/24 01:05:22;;;;;;;8.75;4.43;;;;;;;8.78;99.32;99733.50;5027127;28;20036;-67
2022/12/24 01:07:47;;;;;;;9.52;4.78;;;;;;;8.75;98.75;99737.69;5013707;28;20029;-68
2022/12/24 01:10:16;;;;;;;11.60;4.25;;;;;;;8.77;99.17;99742.69;5032232;28;20112;-68
2022/12/24 01:12:42;;;;;;;9.32;4.30;;;;;;;8.72;99.32;99738.44;5031241;28;20037;-67
2022/12/24 01:15:09;;;;;;;9.88;3.85;;;;;;;8.70;99.29;99751.44;5032741;28;20021;-67
2022/12/24 01:17:35;;;;;;;8.32;3.78;;;;;;;8.83;98.72;99750.06;5031376;28;20056;-68
2022/12/24 01:20:03;;;;;;;10.68;3.63;;;;;;;8.77;98.82;99753.44;5031836;28;20133;-68
2022/12/24 01:22:28;;;;;;;10.02;3.58;;;;;;;8.80;98.88;99747.34;5032080;28;20033;-68
2022/12/24 01:24:54;;;;;;;8.85;4.75;;;;;;;8.79;98.78;99749.25;5025082;28;20101;-67
2022/12/24 01:27:19;;;;;;;10.02;3.63;;;;;;;8.80;99.21;99753.50;5028769;28;20033;-67
2022/12/24 01:29:44;;;;;;;8.63;4.25;;;;;;;8.85;98.34;99758.53;5032101;28;20037;-68
2022/12/24 01:32:10;;;;;;;10.40;4.38;;;;;;;8.81;98.22;99757.72;5030841;28;20402;-68
2022/12/24 01:34:36;;;;;;;7.75;3.63;;;;;;;8.81;98.25;99775.72;5027978;28;20021;-68
2022/12/24 01:37:01;;;;;;;13.52;3.83;;;;;;;8.78;98.99;99766.50;5031728;28;20066;-67
2022/12/24 01:39:26;;;;;;;11.07;4.70;;;;;;;8.74;98.89;99763.00;5027080;28;20064;-66
2022/12/24 01:44:42;;;;;;;11.18;4.00;;;;;;;8.74;98.96;99760.31;5032187;28;20428;-68
2022/12/24 01:47:10;;;;;;;;;;;;;;;8.72;99.20;99761.81;5030508;28;20064;-67
2022/12/24 01:49:40;;;;;;;11.13;4.25;;;;;;;8.68;98.68;99755.63;5031529;28;19971;-69
2022/12/24 01:52:12;;;;;;;10.18;4.78;;;;;;;8.65;99.16;99759.78;5031460;28;20045;-68
2022/12/24 01:54:51;;;;;;;11.32;4.20;;;;;;;8.70;99.51;99761.41;5029604;28;20035;-67
2022/12/24 01:57:25;;;;;;;8.23;4.00;;;;;;;8.75;99.02;99769.16;5024657;28;20033;-66
2022/12/24 01:59:56;;;;;;;12.40;5.25;;;;;;;8.70;99.12;99767.53;5033685;28;20049;-66
2022/12/24 02:02:22;;;;;;;11.75;5.97;;;;;;;8.73;99.34;99779.47;5030594;28;20064;-66
2022/12/24 02:05:03;;;;;;;17.55;5.38;;;;;;;8.75;98.75;99769.91;5030949;28;20021;-67
2022/12/24 02:07:29;;;;;;;;;;;;;;;8.74;98.94;99771.06;5030090;28;20037;-67
2022/12/24 02:10:00;;;;;;;10.57;4.65;;;;;;;8.67;98.66;99776.31;5035694;28;19919;-67
2022/12/24 02:12:29;;;;;;;12.43;4.47;;;;;;;8.69;98.96;99771.34;5033091;28;20402;-67
2022/12/24 02:14:55;;;;;;;10.00;4.07;;;;;;;8.69;98.62;99778.66;5028978;28;20083;-67
2022/12/24 02:17:48;;;;;;;8.70;3.90;;;;;;;8.65;98.86;99789.31;5037927;28;20038;-67
2022/12/24 02:20:25;;;;;;;12.02;4.80;;;;;;;8.67;98.88;99792.41;5037341;28;20478;-67
2022/12/24 02:22:50;;;;;;;10.55;3.67;;;;;;;8.67;98.90;99791.66;5030085;28;20505;-67
2022/12/24 02:25:45;;;;;;;13.32;4.28;;;;;;;8.71;99.07;99803.97;5030104;28;20029;-66
2022/12/24 02:28:42;;;;;;;8.65;4.57;;;;;;;8.60;98.96;99799.59;5022819;28;20096;-67
2022/12/24 02:31:24;;;;;;;6.80;3.45;;;;;;;8.55;98.90;99799.91;5023146;28;20045;-66
2022/12/24 02:34:00;;;;;;;9.25;3.95;;;;;;;8.54;99.79;99798.34;5030699;28;20030;-66
2022/12/24 02:36:35;;;;;;;10.90;3.88;;;;;;;8.65;99.59;99805.41;5027905;28;20050;-66
2022/12/24 02:39:05;;;;;;;9.48;3.63;;;;;;;8.66;99.63;99804.28;5026770;28;20514;-65
2022/12/24 02:44:25;;;;;;;7.78;3.72;;;;;;;8.70;99.00;99807.81;5029320;28;20457;-66
2022/12/24 02:46:51;;;;;;;6.15;3.38;;;;;;;8.71;98.55;99811.28;5027696;28;20029;-66
2022/12/24 02:49:17;;;;;;;7.72;3.40;;;;;;;8.72;99.34;99805.53;5031133;28;20034;-66
2022/12/24 02:51:42;;;;;;;13.30;4.75;;;;;;;8.65;99.18;99810.03;5033579;28;20026;-68
2022/12/24 02:54:08;;;;;;;8.77;4.15;;;;;;;8.65;99.06;99818.84;5028828;28;20033;-66
2022/12/24 02:57:10;;;;;;;7.28;3.17;;;;;;;8.64;99.13;99820.00;5028617;28;20112;-67
2022/12/24 03:00:01;;;;;;;7.63;3.55;;;;;;;8.69;99.07;99816.22;5021783;28;20094;-66
2022/12/24 03:02:32;;;;;;;9.18;3.70;;;;;;;8.61;98.89;99818.03;5022933;28;20124;-67
2022/12/24 03:05:11;;;;;;;5.10;3.17;;;;;;;8.47;99.28;99822.41;5021528;28;20038;-66
2022/12/24 03:08:01;;;;;;;4.30;2.83;;;;;;;8.56;99.85;99826.38;5029443;28;20426;-67
2022/12/24 03:10:45;;;;;;;5.03;2.45;;;;;;;8.57;99.34;99811.84;5024249;28;20034;-67
2022/12/24 03:13:19;;;;;;;5.90;3.63;;;;;;;8.51;99.30;99815.19;5030613;28;20033;-66
2022/12/24 03:15:46;;;;;;;7.88;2.95;;;;;;;8.48;99.09;99824.72;5022882;28;20041;-66
2022/12/24 03:18:19;;;;;;;9.60;3.97;;;;;;;8.45;99.28;99817.41;5030669;28;20037;-66
2022/12/24 03:20:51;;;;;;;7.25;2.92;;;;;;;8.43;99.59;99824.25;5028717;28;20029;-65
2022/12/24 03:23:17;;;;;;;8.02;3.03;;;;;;;8.45;99.44;99825.47;5026225;28;20033;-67
2022/12/24 03:25:44;;;;;;;9.57;4.25;;;;;;;8.54;99.54;99820.59;5029706;28;20021;-66
2022/12/24 03:28:12;;;;;;;7.30;3.33;;;;;;;8.57;99.02;99830.63;5028551;28;20495;-66
2022/12/24 03:30:40;;;;;;;7.57;3.20;;;;;;;8.55;99.37;99832.13;5029727;28;20060;-66
2022/12/24 03:33:06;;;;;;;3.78;2.38;;;;;;;8.56;99.31;99837.13;5017772;28;20149;-66
2022/12/24 03:35:31;;;;;;;6.05;2.95;;;;;;;8.59;99.22;99844.47;5030741;28;20124;-67
2022/12/24 03:37:56;;;;;;;6.88;2.72;;;;;;;8.59;99.14;99839.09;5028093;28;20044;-66
2022/12/24 03:40:22;;;;;;;7.25;2.78;;;;;;;8.61;98.89;99844.88;5030069;28;20247;-66
2022/12/24 03:42:47;;;;;;;11.18;3.35;;;;;;;8.57;99.38;99852.09;5027236;28;20505;-66
2022/12/24 03:45:13;;;;;;;5.57;2.70;;;;;;;8.59;98.98;99852.50;5026385;28;20570;-65
2022/12/24 03:47:38;;;;;;;8.93;2.80;;;;;;;8.52;99.18;99856.97;5028274;28;20087;-65
2022/12/24 03:50:05;;;;;;;6.32;3.22;;;;;;;8.54;99.12;99854.69;5029847;28;20128;-67
2022/12/24 03:52:30;;;;;;;5.22;2.47;;;;;;;8.55;99.65;99858.94;5028765;28;20025;-68
2022/12/24 03:54:56;;;;;;;5.80;2.35;;;;;;;8.53;99.36;99856.63;5028406;28;20079;-66
2022/12/24 03:57:21;;;;;;;5.97;2.92;;;;;;;8.60;99.57;99858.63;5022989;28;20453;-66
2022/12/24 03:59:47;;;;;;;6.43;2.35;;;;;;;8.62;99.52;99854.47;5016854;28;20068;-68
2022/12/24 04:02:12;;;;;;;4.80;2.45;;;;;;;8.70;98.90;99866.84;5026466;28;20052;-67
2022/12/24 04:04:38;;;;;;;4.28;2.40;;;;;;;8.40;99.03;99876.72;5028446;28;20390;-66
2022/12/24 04:07:04;;;;;;;4.82;2.30;;;;;;;8.40;99.52;99871.34;5016970;28;20021;-66
2022/12/24 04:09:30;;;;;;;9.27;3.30;;;;;;;8.50;99.56;99876.13;5028437;28;20037;-66
2022/12/24 04:11:55;;;;;;;3.90;2.35;;;;;;;8.55;99.42;99875.03;5040131;28;20060;-67
2022/12/24 04:14:20;;;;;;;6.57;2.53;;;;;;;8.55;99.26;99885.78;5026303;28;20025;-67
2022/12/24 04:16:46;;;;;;;5.90;2.85;;;;;;;8.60;99.05;99880.09;5020349;28;20046;-66
2022/12/24 04:19:11;;;;;;;4.68;1.92;;;;;;;8.62;98.93;99880.50;5028569;28;20043;-66
2022/12/24 04:21:37;;;;;;;2.80;2.53;;;;;;;8.63;98.59;99882.06;5029864;28;20083;-66
2022/12/24 04:24:02;;;;;;;5.63;2.63;;;;;;;8.46;98.66;99882.56;5016955;28;20493;-66
2022/12/24 04:26:28;;;;;;;6.32;2.55;;;;;;;8.39;99.75;99882.44;5032706;28;20482;-66
2022/12/24 04:28:53;;;;;;;12.30;2.83;;;;;;;8.45;99.31;99887.16;5032185;28;20049;-69
2022/12/24 04:31:18;;;;;;;4.10;2.75;;;;;;;8.47;99.53;99895.63;5028497;28;20045;-67
2022/12/24 04:33:44;;;;;;;6.63;3.13;;;;;;;8.51;99.26;99898.34;5029633;28;20038;-66
2022/12/24 04:36:18;;;;;;;6.70;2.97;;;;;;;8.59;98.96;99883.94;5033827;28;20041;-66
2022/12/24 04:38:45;;;;;;;5.45;2.58;;;;;;;8.57;98.99;99907.66;5033108;28;20045;-66
2022/12/24 04:41:13;;;;;;;4.53;2.58;;;;;;;8.59;98.97;99892.75;5029651;28;20120;-66
2022/12/24 04:43:39;;;;;;;7.75;2.80;;;;;;;8.51;99.02;99898.34;5028602;28;20029;-66
2022/12/24 04:46:17;;;;;;;5.97;2.42;;;;;;;8.57;98.78;99903.06;5028803;28;20236;-65
2022/12/24 04:48:44;;;;;;;5.82;2.45;;;;;;;8.59;99.02;99902.72;5032849;28;20406;-65
2022/12/24 04:51:10;;;;;;;6.72;2.97;;;;;;;8.58;98.98;99901.94;5032680;28;20183;-65
2022/12/24 04:53:36;;;;;;;5.88;3.03;;;;;;;8.66;98.38;99902.81;5033726;28;20026;-65
2022/12/24 04:56:02;;;;;;;6.68;3.85;;;;;;;8.65;98.55;99910.06;5033122;28;20041;-65
2022/12/24 04:58:27;;;;;;;6.18;2.92;;;;;;;8.60;98.67;99901.56;5032873;28;20037;-65
2022/12/24 05:00:53;;;;;;;8.05;2.75;;;;;;;8.57;98.26;99907.66;5025874;28;20096;-65
2022/12/24 05:03:19;;;;;;;6.30;2.35;;;;;;;8.51;98.51;99898.34;5032193;28;20148;-66
2022/12/24 05:06:05;;;;;;;4.93;2.25;;;;;;;8.53;98.42;99896.88;5030528;28;20046;-67
2022/12/24 05:08:30;;;;;;;6.68;2.83;;;;;;;8.52;98.39;99908.72;4968565;28;20050;-65
2022/12/24 05:10:57;;;;;;;5.70;2.97;;;;;;;8.54;98.58;99906.47;4976930;28;20057;-64
2022/12/24 05:13:24;;;;;;;6.22;2.85;;;;;;;8.54;98.54;99903.78;4988642;28;20077;-65
2022/12/24 05:15:49;;;;;;;6.70;2.33;;;;;;;8.56;98.75;99904.19;4981793;28;20033;-65
2022/12/24 05:18:14;;;;;;;7.43;3.50;;;;;;;8.67;97.87;99902.44;5004215;28;20054;-66
2022/12/24 05:20:40;;;;;;;5.90;3.20;;;;;;;8.57;98.08;99903.06;4993324;28;20101;-67
2022/12/24 05:26:37;;;;;;;7.03;2.50;;;;;;;8.57;97.88;99905.75;4981135;28;20149;-65
2022/12/24 05:28:37;;;;;;;5.20;2.63;;;;;;;8.57;98.08;99905.75;4971454;28;20042;-65
2022/12/24 05:31:03;;;;;;;4.07;2.78;;;;;;;8.52;97.81;99902.59;4982653;28;20040;-64
2022/12/24 05:33:28;;;;;;;5.93;3.22;;;;;;;8.51;98.46;99909.09;4989862;28;20143;-65
2022/12/24 05:35:54;;;;;;;6.95;3.08;;;;;;;8.53;98.17;99914.88;4973446;28;20046;-65
2022/12/24 05:38:19;;;;;;;5.35;1.85;;;;;;;8.64;96.94;99930.00;4991228;28;20065;-64
2022/12/24 05:40:45;;;;;;;4.90;2.40;;;;;;;8.50;97.72;99919.03;4973121;28;20127;-65
2022/12/24 05:43:11;;;;;;;5.78;2.63;;;;;;;8.47;98.32;99922.47;4992354;28;20519;-64
2022/12/24 05:45:36;;;;;;;5.32;1.73;;;;;;;8.43;98.52;99923.53;5003606;28;20045;-64
2022/12/24 05:48:01;;;;;;;5.40;2.40;;;;;;;8.51;98.29;99922.50;5013920;28;20048;-64
2022/12/24 05:50:27;;;;;;;4.47;2.88;;;;;;;8.54;98.47;99938.66;5032203;28;20498;-64
2022/12/24 05:53:03;;;;;;;7.07;2.63;;;;;;;8.46;98.30;99937.00;5033887;28;20036;-64
2022/12/24 05:55:28;;;;;;;5.82;2.40;;;;;;;8.38;97.99;99940.69;5040624;28;20068;-64
2022/12/24 05:57:54;;;;;;;6.35;2.90;;;;;;;8.44;98.45;99943.88;5032322;28;20048;-66
2022/12/24 06:00:19;;;;;;;5.60;1.83;;;;;;;8.40;98.10;99935.72;5028135;28;20085;-63
2022/12/24 06:02:45;;;;;;;4.18;2.38;;;;;;;8.46;97.90;99939.66;5031232;28;20148;-64
2022/12/24 06:05:10;;;;;;;4.38;2.53;;;;;;;8.40;98.04;99937.66;5031256;28;20041;-67
2022/12/24 06:07:36;;;;;;;3.58;1.88;;;;;;;8.37;98.54;99943.72;5031648;28;20039;-64
2022/12/24 06:10:01;;;;;;;4.32;1.90;;;;;;;8.43;98.48;99943.09;5029428;28;20047;-66
2022/12/24 06:12:27;;;;;;;3.60;1.77;;;;;;;8.40;98.49;99954.50;5030938;28;20033;-65
2022/12/24 06:14:52;;;;;;;5.82;1.92;;;;;;;8.47;98.40;99951.97;5030847;28;20466;-64
2022/12/24 06:17:17;;;;;;;4.68;2.55;;;;;;;8.43;98.47;99948.44;5030186;28;20037;-65
2022/12/24 06:19:43;;;;;;;2.85;2.20;;;;;;;8.47;98.24;99960.03;5024765;28;20069;-66
2022/12/24 06:22:08;;;;;;;4.70;1.85;;;;;;;8.56;97.24;99947.13;5031629;28;20061;-64
2022/12/24 06:24:34;;;;;;;5.03;1.92;;;;;;;8.39;97.92;99961.03;5030011;28;20028;-64
2022/12/24 06:26:59;;;;;;;2.63;1.70;;;;;;;8.51;97.28;99949.34;5030093;28;20072;-66
2022/12/24 06:29:25;;;;;;;4.50;2.08;;;;;;;8.42;97.46;99946.88;5027654;28;20169;-64
2022/12/24 06:31:50;;;;;;;6.18;1.85;;;;;;;8.33;97.46;99957.06;5029707;28;20402;-65
2022/12/24 06:34:16;;;;;;;3.85;2.40;;;;;;;8.33;98.47;99948.25;5032067;28;20029;-64
2022/12/24 06:36:41;;;;;;;2.38;1.50;;;;;;;8.39;98.33;99946.81;5029059;28;20565;-64
2022/12/24 06:39:07;;;;;;;2.33;1.60;;;;;;;8.41;98.04;99956.06;5031119;28;20185;-64
2022/12/24 06:41:32;;;;;;;3.28;1.98;;;;;;;8.39;98.28;99952.97;5024547;28;20040;-64
2022/12/24 06:43:57;;;;;;;4.43;1.90;;;;;;;8.38;98.00;99964.81;5042562;28;20041;-64
2022/12/24 06:46:23;;;;;;;3.13;2.25;;;;;;;8.29;97.96;99961.59;5029056;28;20193;-64
2022/12/24 06:48:48;;;;;;;2.70;1.70;;;;;;;8.35;98.23;99964.75;5032036;28;20044;-66
2022/12/24 06:51:18;;;;;;;4.53;1.88;;;;;;;8.20;98.26;99966.41;5034094;28;20080;-67
2022/12/24 06:53:44;;;;;;;6.93;1.67;;;;;;;8.34;98.89;99964.00;5042042;28;20074;-67
2022/12/24 06:56:12;;;;;;;4.95;1.90;;;;;;;8.31;98.37;99977.34;5044752;28;20128;-67
2022/12/24 06:58:39;;;;;;;3.60;2.47;;;;;;;8.35;98.56;99978.19;5041310;28;20033;-67
2022/12/24 07:01:06;;;;;;;2.47;1.90;;;;;;;8.43;97.80;99979.84;5035136;28;21767;-67
2022/12/24 07:03:32;;;;;;;3.00;1.52;;;;;;;8.37;97.86;99982.06;5043076;28;20387;-67
2022/12/24 07:05:58;;;;;;;2.78;1.75;;;;;;;8.34;97.84;99972.06;5037665;28;20048;-67
2022/12/24 07:08:24;;;;;;;2.67;1.58;;;;;;;8.28;98.17;99984.19;5039559;28;20060;-66
2022/12/24 07:10:51;;;;;;;3.45;1.73;;;;;;;8.29;98.58;99991.09;5010609;28;20489;-66
2022/12/24 07:13:17;;;;;;;2.72;1.75;;;;;;;8.35;98.53;99981.63;5041929;28;20055;-66
2022/12/24 07:15:43;;;;;;;1.83;1.20;;;;;;;8.38;98.65;99988.97;5036906;28;20461;-66
2022/12/24 07:18:09;;;;;;;2.80;1.15;;;;;;;8.40;98.56;99994.00;5028303;28;20037;-67
2022/12/24 07:20:34;;;;;;;2.03;1.27;;;;;;;8.34;98.93;99998.88;5038722;28;20034;-67
2022/12/24 07:23:00;;;;;;;2.78;1.40;;;;;;;8.34;98.33;99996.19;5030211;28;20037;-67
2022/12/24 07:25:25;;;;;;;3.92;1.75;;;;;;;8.34;98.53;100006.94;5043553;28;20505;-66
2022/12/24 07:27:51;;;;;;;4.35;1.60;;;;;;;8.35;98.54;100018.41;5028956;28;20044;-67
2022/12/24 07:30:16;;;;;;;1.55;1.45;;;;;;;8.40;98.39;100004.72;5023716;28;20087;-66
2022/12/24 07:32:42;;;;;;;2.50;1.58;;;;;;;8.40;98.16;100012.78;5033667;28;20034;-65
2022/12/24 07:35:10;;;;;;;3.33;1.88;;;;;;;8.26;97.59;100004.44;5030746;28;20029;-67
2022/12/24 07:37:36;;;;;;;4.22;2.00;;;;;;;7.92;99.10;100017.56;5032922;28;20041;-65
2022/12/24 07:40:05;;;;;;;3.15;1.85;;;;;;;8.03;99.80;100028.50;5032906;28;20025;-67
2022/12/24 07:42:30;;;;;;;1.92;1.10;;;;;;;8.08;99.57;100030.91;5030313;28;20033;-67
2022/12/24 07:44:59;;;;;;;2.25;1.10;;;;;;;8.16;99.14;100029.91;5023591;28;20033;-67
2022/12/24 07:47:24;;;;;;;4.90;1.75;;;;;;;8.26;99.09;100033.97;5029011;28;20021;-66
2022/12/24 07:49:49;;;;;;;2.10;1.42;;;;;;;8.35;98.63;100039.88;5023950;28;20041;-67
2022/12/24 07:52:15;;;;;;;4.95;1.90;;;;;;;8.28;98.17;100048.56;5029979;28;20061;-67
2022/12/24 07:54:40;;;;;;;3.55;1.40;;;;;;;8.25;98.42;100037.75;5037036;28;20025;-65
2022/12/24 07:57:06;;;;;;;2.05;1.23;;;;;;;8.30;98.29;100043.63;5035925;28;20211;-65
2022/12/24 07:59:31;;;;;;;2.55;1.27;;;;;;;8.30;98.48;100050.91;5017245;28;20040;-66
2022/12/24 08:01:56;;;;;;;2.97;1.58;;;;;;;8.23;98.25;100056.84;5046870;28;20040;-66
2022/12/24 08:04:22;;;;;;;2.38;1.70;;;;;;;8.24;98.26;100053.06;5034112;28;20494;-65
2022/12/24 08:06:47;;;;;;;4.13;1.88;;;;;;;8.28;98.23;100056.63;5034608;28;20041;-65
2022/12/24 08:09:14;;;;;;;4.13;1.70;;;;;;;8.22;98.58;100060.69;5030249;28;20045;-65
2022/12/24 08:11:39;;;;;;;1.83;1.23;;;;;;;8.30;98.29;100062.41;5032823;28;20025;-67
2022/12/24 08:14:04;;;;;;;2.70;1.67;;;;;;;8.28;98.65;100072.72;5030930;28;20494;-65
2022/12/24 08:16:30;;;;;;;4.55;2.17;;;;;;;8.21;98.56;100064.47;5033873;28;20033;-65
2022/12/24 08:18:55;;;;;;;7.03;1.73;;;;;;;8.25;98.42;100086.03;5033643;28;20026;-67
2022/12/24 08:21:21;;;;;;;4.07;1.80;;;;;;;8.23;98.80;100084.47;5036715;28;20418;-66
2022/12/24 08:23:46;;;;;;;2.20;1.35;;;;;;;8.12;98.30;100083.47;5051423;28;20041;-66
2022/12/24 08:26:12;;;;;;;4.82;2.05;;;;;;;8.18;99.11;100076.72;5038023;28;20053;-67
2022/12/24 08:28:38;;;;;;;2.28;1.55;;;;;;;8.25;98.95;100086.81;5029920;28;20029;-67
2022/12/24 08:31:06;;;;;;;2.80;1.80;;;;;;;8.23;98.92;100081.00;5019777;28;20049;-67
2022/12/24 08:33:31;;;;;;;5.35;2.78;;;;;;;8.09;98.29;100086.09;5022143;28;20057;-66
2022/12/24 08:35:59;;;;;;;3.63;1.85;;;;;;;8.13;99.36;100084.22;5038572;28;20600;-64
2022/12/24 08:38:25;;;;;;;2.17;1.67;;;;;;;8.25;98.90;100099.44;5031412;28;20029;-67
2022/12/24 08:40:52;;;;;;;2.47;1.65;;;;;;;8.28;99.42;100099.53;5011932;28;20548;-67
2022/12/24 08:43:18;;;;;;;4.38;1.98;;;;;;;8.28;98.94;100093.38;5032277;28;20068;-67
2022/12/24 08:45:45;;;;;;;3.50;1.33;;;;;;;8.24;98.55;100093.28;5029092;28;20126;-67
2022/12/24 08:48:11;;;;;;;3.53;1.85;;;;;;;8.17;98.92;100096.59;5014607;28;20060;-68
2022/12/24 08:50:41;;;;;;;2.83;1.88;;;;;;;8.25;99.39;100096.75;5036302;28;20057;-68
2022/12/24 08:53:08;;;;;;;2.45;1.52;;;;;;;8.30;99.22;100105.31;5033332;28;20083;-67
2022/12/24 08:55:33;;;;;;;2.95;1.67;;;;;;;8.33;98.92;100098.47;5037404;28;20037;-67
2022/12/24 08:57:59;;;;;;;5.70;1.55;;;;;;;8.36;99.11;100111.19;5037186;28;20128;-67
2022/12/24 09:00:26;;;;;;;1.95;1.23;;;;;;;8.30;99.00;100116.06;5024244;28;20068;-67
2022/12/24 09:02:51;;;;;;;2.13;1.45;;;;;;;8.34;98.92;100108.06;5030220;28;20414;-67
2022/12/24 09:05:17;;;;;;;5.63;2.17;;;;;;;8.35;99.10;100128.38;5032342;28;20021;-67
2022/12/24 09:07:42;;;;;;;3.45;1.80;;;;;;;8.39;99.02;100129.25;5031466;28;20032;-67
2022/12/24 09:10:09;;;;;;;2.25;1.30;;;;;;;8.42;99.02;100123.94;5027304;28;20512;-67
2022/12/24 09:12:34;;;;;;;3.28;1.90;;;;;;;8.42;98.73;100128.56;5025979;28;20163;-67
2022/12/24 09:15:00;;;;;;;2.13;1.65;;;;;;;8.40;98.69;100134.25;5024704;28;20398;-67
2022/12/24 09:17:28;;;;;;;2.42;1.30;;;;;;;8.41;98.80;100133.13;5031995;28;20030;-67
2022/12/24 09:19:54;;;;;;;2.78;1.52;;;;;;;8.45;98.68;100141.25;5028847;28;20041;-67
2022/12/24 09:22:20;;;;;;;5.57;2.42;;;;;;;8.47;98.41;100142.47;5031592;28;20029;-67
2022/12/24 09:24:45;;;;;;;5.20;2.35;;;;;;;8.39;98.43;100148.81;5028161;28;20056;-67
2022/12/24 09:27:11;;;;;;;2.17;1.60;;;;;;;8.39;98.85;100142.66;5032086;28;20041;-67
2022/12/24 09:29:39;;;;;;;4.97;2.65;;;;;;;8.33;98.91;100142.16;5027555;28;20505;-67
2022/12/24 09:32:05;;;;;;;10.98;4.15;;;;;;;8.36;98.53;100162.16;5028480;28;20494;-67
2022/12/24 09:34:31;;;;;;;7.13;3.03;;;;;;;8.39;99.11;100150.69;5006993;28;20069;-67
2022/12/24 09:36:56;;;;;;;4.88;2.45;;;;;;;8.38;98.83;100165.25;5027665;28;20065;-67
2022/12/24 09:39:22;;;;;;;2.40;1.65;;;;;;;8.46;99.02;100167.72;5027031;28;20040;-67
2022/12/24 09:42:02;;;;;;;5.40;2.60;;;;;;;8.49;98.78;100176.97;5029136;28;20032;-67
2022/12/24 09:44:49;;;;;;;4.93;2.50;;;;;;;8.47;99.12;100180.03;5033542;28;20032;-67
2022/12/24 09:47:27;;;;;;;2.20;1.77;;;;;;;8.43;99.15;100195.28;5036979;28;20040;-68
2022/12/24 09:49:56;;;;;;;2.67;1.65;;;;;;;8.38;99.48;100195.53;5030830;28;20033;-68
2022/12/24 09:52:38;;;;;;;3.05;2.03;;;;;;;8.32;99.09;100196.16;5022975;28;20481;-67
2022/12/24 09:55:12;;;;;;;2.92;1.77;;;;;;;8.39;99.46;100194.41;5040979;28;20565;-67
2022/12/24 09:57:40;;;;;;;7.63;4.20;;;;;;;8.37;99.18;100195.88;5041132;28;20557;-67
2022/12/24 10:00:28;;;;;;;3.45;1.95;;;;;;;8.39;99.24;100189.03;5043157;28;20044;-67
2022/12/24 10:02:53;;;;;;;2.90;1.90;;;;;;;8.46;99.28;100194.56;5024713;28;20091;-67
2022/12/24 10:05:34;;;;;;;2.90;1.88;;;;;;;8.50;99.46;100183.88;5022852;28;20047;-68
2022/12/24 10:08:32;;;;;;;6.28;2.60;;;;;;;8.32;99.34;100190.81;5043534;28;20029;-67
2022/12/24 10:11:28;;;;;;;2.88;1.60;;;;;;;8.38;99.96;100195.53;5032270;28;20049;-68
2022/12/24 10:14:17;;;;;;;3.05;2.13;;;;;;;8.40;99.67;100193.28;4996676;28;20033;-68
2022/12/24 10:16:48;;;;;;;3.75;1.60;;;;;;;8.70;98.15;100210.41;5045791;28;20037;-67
2022/12/24 10:19:24;;;;;;;;;;;;;;;8.58;98.53;100215.09;5029443;28;20485;-68
2022/12/24 10:22:20;;;;;;;2.72;1.80;;;;;;;8.47;98.95;100214.91;5027759;28;19925;-67
2022/12/24 10:24:56;;;;;;;4.03;1.15;;;;;;;8.54;98.73;100217.72;5022605;28;20376;-67
2022/12/24 10:27:27;;;;;;;4.35;2.25;;;;;;;8.60;99.41;100220.91;5007790;28;20041;-68
2022/12/24 10:30:02;;;;;;;4.80;2.08;;;;;;;8.73;98.79;100216.97;5029387;28;20068;-68
2022/12/24 10:32:31;;;;;;;3.08;1.65;;;;;;;8.61;98.44;100225.94;5025735;28;20039;-68
2022/12/24 10:35:16;;;;;;;4.15;1.95;;;;;;;8.53;98.58;100228.81;5027727;28;20028;-67
2022/12/24 10:37:43;;;;;;;3.00;1.90;;;;;;;8.46;99.56;100221.38;5029470;28;20537;-67
2022/12/24 10:40:32;;;;;;;3.53;2.20;;;;;;;8.49;99.84;100218.00;5024604;28;20069;-68
2022/12/24 10:42:58;;;;;;;5.43;2.47;;;;;;;8.58;99.70;100228.53;5024180;28;20041;-68
2022/12/24 10:45:29;;;;;;;2.72;1.98;;;;;;;8.63;99.54;100231.72;5029747;28;20071;-68
2022/12/24 10:48:00;;;;;;;3.75;2.72;;;;;;;8.73;99.36;100230.41;5024787;28;20052;-67
2022/12/24 10:50:41;;;;;;;;;;;;;;;8.78;99.23;100233.59;5024407;28;20563;-67
2022/12/24 10:53:20;;;;;;;3.47;1.92;;;;;;;8.72;99.35;100240.34;5023776;28;19924;-67
2022/12/24 10:55:47;;;;;;;4.07;2.38;;;;;;;8.75;99.39;100239.63;5029913;28;20044;-67
2022/12/24 10:58:17;;;;;;;3.75;2.45;;;;;;;8.77;98.64;100237.38;5021036;28;20049;-68
2022/12/24 11:00:49;;;;;;;4.13;2.30;;;;;;;8.81;97.90;100243.59;5027229;28;20152;-68
2022/12/24 11:03:18;;;;;;;3.03;1.75;;;;;;;8.75;98.62;100245.00;5026867;28;20047;-68
2022/12/24 11:05:44;;;;;;;5.88;2.92;;;;;;;8.53;98.78;100244.91;5025667;28;20036;-67
2022/12/24 11:08:16;;;;;;;5.03;2.30;;;;;;;8.55;99.83;100245.34;5030186;28;20816;-67
2022/12/24 11:10:54;;;;;;;3.60;2.17;;;;;;;8.63;98.77;100245.13;5026074;28;20037;-68
2022/12/24 11:13:25;;;;;;;5.90;2.58;;;;;;;8.46;99.75;100242.09;5026971;28;20502;-68
2022/12/24 11:16:00;;;;;;;3.60;2.50;;;;;;;8.45;100.00;100246.66;5023258;28;20040;-68
2022/12/24 11:18:26;;;;;;;3.53;2.38;;;;;;;8.52;100.00;100238.75;5045122;28;20099;-68
2022/12/24 11:20:53;;;;;;;6.13;2.38;;;;;;;8.73;99.45;100233.84;5046075;28;20063;-67
2022/12/24 11:23:20;;;;;;;6.47;2.65;;;;;;;8.72;99.61;100240.34;5022251;28;20087;-68
2022/12/24 11:25:49;;;;;;;4.40;2.05;;;;;;;8.72;99.90;100242.25;5024232;28;20449;-68
2022/12/24 11:28:28;;;;;;;3.50;2.40;;;;;;;8.76;99.54;100251.16;5037520;28;20037;-68
2022/12/24 11:31:05;;;;;;;5.18;2.78;;;;;;;8.86;99.36;100262.13;5028636;28;20421;-68
2022/12/24 11:33:43;;;;;;;13.25;3.22;;;;;;;8.88;99.39;100262.53;5028719;28;20061;-68
2022/12/24 11:36:12;;;;;;;5.05;2.65;;;;;;;8.89;99.37;100252.56;5026975;28;20387;-68
2022/12/24 11:38:38;;;;;;;4.22;2.78;;;;;;;8.89;99.10;100250.69;5039649;28;20104;-67
2022/12/24 11:41:05;;;;;;;6.85;2.67;;;;;;;8.79;99.04;100240.50;5029302;28;20467;-68
2022/12/24 11:43:44;;;;;;;5.13;2.65;;;;;;;8.73;99.56;100241.13;5029441;28;20029;-67
2022/12/24 11:46:40;;;;;;;4.20;2.88;;;;;;;8.57;100.00;100237.72;5040117;28;20083;-67
2022/12/24 11:49:21;;;;;;;4.22;2.65;;;;;;;8.48;100.00;100239.84;5021739;28;20613;-68
2022/12/24 11:52:10;;;;;;;5.13;2.50;;;;;;;8.66;100.00;100247.13;5029415;28;20112;-68
2022/12/24 11:54:59;;;;;;;5.65;2.97;;;;;;;8.81;100.00;100248.97;5026315;28;20057;-68
2022/12/24 11:57:42;;;;;;;5.20;2.67;;;;;;;8.84;100.00;100232.19;5030713;28;20041;-68